Time;durP1;ratioP1;P1;durP2;ratioP2;P2;SDS_P1;SDS_P2;PMS_P1;PMS_P2;Temp;Humidity;BMP_temperature;BMP_pressure;BME280_temperature;BME280_humidity;BME280_pressure;Samples;Min_cycle;Max_cycle;Signal;HPM_P1;HPM_P2
2022/06/17 00:01:04;;;;;;;;;;;;;;;;;;5116884;27;19935;-66
2022/06/17 00:03:31;;;;;;;;;;;;;;;;;;5121920;28;19923;-66
2022/06/17 00:05:57;;;;;;;;;;;;;;;;;;5126299;28;19987;-66
2022/06/17 00:08:23;;;;;;;;;;;;;;;;;;5126348;28;19962;-66
2022/06/17 00:10:49;;;;;;;;;;;;;;;;;;5124023;28;19938;-66
2022/06/17 00:13:15;;;;;;;;;;;;;;;;;;5129421;27;19936;-65
2022/06/17 00:15:41;;;;;;;;;;;;;;;;;;5127965;27;19934;-66
2022/06/17 00:18:07;;;;;;;;;;;;;;;;;;5127421;28;19991;-66
2022/06/17 00:20:34;;;;;;;;;;;;;;;;;;5125805;28;19946;-66
2022/06/17 00:23:00;;;;;;;;;;;;;;;;;;5126271;28;19935;-66
2022/06/17 00:25:26;;;;;;;;;;;;;;;;;;5127317;28;19931;-66
2022/06/17 00:27:52;;;;;;;;;;;;;;;;;;5127143;27;19924;-66
2022/06/17 00:30:18;;;;;;;;;;;;;;;;;;5127288;28;19973;-66
2022/06/17 00:32:44;;;;;;;;;;;;;;;;;;5123399;28;19924;-66
2022/06/17 00:35:10;;;;;;;;;;;;;;;;;;5139565;27;19928;-66
2022/06/17 00:37:36;;;;;;;;;;;;;;;;;;5124731;28;19920;-66
2022/06/17 00:40:02;;;;;;;;;;;;;;;;;;5125853;28;19932;-66
2022/06/17 00:42:28;;;;;;;;;;;;;;;;;;5126248;28;19932;-66
2022/06/17 00:44:54;;;;;;;;;;;;;;;;;;5125775;28;20306;-66
2022/06/17 00:47:20;;;;;;;;;;;;;;;;;;5126568;28;19924;-66
2022/06/17 00:49:46;;;;;;;;;;;;;;;;;;5124050;28;19931;-66
2022/06/17 00:52:12;;;;;;;;;;;;;;;;;;5125832;28;19923;-66
2022/06/17 00:54:38;;;;;;;;;;;;;;;;;;5125656;28;19931;-66
2022/06/17 00:57:04;;;;;;;;;;;;;;;;;;5127855;27;19927;-66
2022/06/17 00:59:30;;;;;;;;;;;;;;;;;;5138214;27;19935;-66
2022/06/17 01:01:56;;;;;;;;;;;;;;;;;;5127042;27;19923;-66
2022/06/17 01:04:22;;;;;;;;;;;;;;;;;;5126670;28;19923;-66
2022/06/17 01:06:48;;;;;;;;;;;;;;;;;;5125978;28;19924;-66
2022/06/17 01:11:59;;;;;;;;;;;;;;;;;;5126525;28;19945;-66
2022/06/17 01:14:25;;;;;;;;;;;;;;;;;;5126535;28;19924;-67
2022/06/17 01:16:51;;;;;;;;;;;;;;;;;;5126361;28;19931;-66
2022/06/17 01:19:17;;;;;;;;;;;;;;;;;;5125924;27;19931;-66
2022/06/17 01:21:43;;;;;;;;;;;;;;;;;;5123199;28;19924;-66
2022/06/17 01:24:09;;;;;;;;;;;;;;;;;;5135628;27;20305;-66
2022/06/17 01:26:35;;;;;;;;;;;;;;;;;;5126309;28;19999;-66
2022/06/17 01:29:01;;;;;;;;;;;;;;;;;;5124874;28;19992;-66
2022/06/17 01:31:27;;;;;;;;;;;;;;;;;;5126398;28;19927;-66
2022/06/17 01:33:53;;;;;;;;;;;;;;;;;;5123842;28;20013;-67
2022/06/17 01:36:19;;;;;;;;;;;;;;;;;;5126019;28;19981;-66
2022/06/17 01:38:45;;;;;;;;;;;;;;;;;;5124117;28;19924;-66
2022/06/17 01:41:11;;;;;;;;;;;;;;;;;;5125836;28;19928;-66
2022/06/17 01:43:37;;;;;;;;;;;;;;;;;;5125279;28;19934;-66
2022/06/17 01:46:03;;;;;;;;;;;;;;;;;;5120791;28;19932;-66
2022/06/17 01:48:29;;;;;;;;;;;;;;;;;;5124899;28;19978;-66
2022/06/17 01:50:55;;;;;;;;;;;;;;;;;;5137565;27;19924;-66
2022/06/17 01:53:21;;;;;;;;;;;;;;;;;;5125849;28;19931;-67
2022/06/17 01:55:47;;;;;;;;;;;;;;;;;;5124266;28;19928;-66
2022/06/17 01:58:13;;;;;;;;;;;;;;;;;;5125131;28;19935;-67
2022/06/17 02:00:41;;;;;;;;;;;;;;;;;;5124031;28;19923;-66
2022/06/17 02:03:07;;;;;;;;;;;;;;;;;;5122432;28;19935;-66
2022/06/17 02:05:33;;;;;;;;;;;;;;;;;;5125204;28;19924;-66
2022/06/17 02:07:59;;;;;;;;;;;;;;;;;;5123627;28;19924;-66
2022/06/17 02:10:26;;;;;;;;;;;;;;;;;;5125722;28;19930;-66
2022/06/17 02:12:52;;;;;;;;;;;;;;;;;;5125401;28;19924;-66
2022/06/17 02:15:18;;;;;;;;;;;;;;;;;;5124304;28;19950;-66
2022/06/17 02:17:43;;;;;;;;;;;;;;;;;;5124214;28;19928;-66
2022/06/17 02:20:09;;;;;;;;;;;;;;;;;;5133062;28;19928;-66
2022/06/17 02:22:35;;;;;;;;;;;;;;;;;;5125092;28;19924;-66
2022/06/17 02:25:03;;;;;;;;;;;;;;;;;;5125456;28;19997;-66
2022/06/17 02:27:29;;;;;;;;;;;;;;;;;;5124238;28;19959;-67
2022/06/17 02:29:55;;;;;;;;;;;;;;;;;;5124054;28;19969;-66
2022/06/17 02:32:21;;;;;;;;;;;;;;;;;;5125377;28;20333;-66
2022/06/17 02:34:47;;;;;;;;;;;;;;;;;;5125399;28;19934;-66
2022/06/17 02:37:13;;;;;;;;;;;;;;;;;;5125310;28;19931;-66
2022/06/17 02:39:39;;;;;;;;;;;;;;;;;;5125248;28;19923;-66
2022/06/17 02:42:05;;;;;;;;;;;;;;;;;;5120853;28;19955;-66
2022/06/17 02:44:31;;;;;;;;;;;;;;;;;;5125368;28;20333;-66
2022/06/17 02:46:57;;;;;;;;;;;;;;;;;;5124889;28;19920;-66
2022/06/17 02:49:23;;;;;;;;;;;;;;;;;;5124704;28;19923;-66
2022/06/17 02:51:49;;;;;;;;;;;;;;;;;;5125377;28;19973;-66
2022/06/17 02:54:15;;;;;;;;;;;;;;;;;;5123819;28;19924;-66
2022/06/17 02:56:41;;;;;;;;;;;;;;;;;;5125288;28;19920;-66
2022/06/17 02:59:08;;;;;;;;;;;;;;;;;;5123323;28;20291;-66
2022/06/17 03:01:34;;;;;;;;;;;;;;;;;;5125016;28;19925;-65
2022/06/17 03:04:02;;;;;;;;;;;;;;;;;;5123950;27;20283;-66
2022/06/17 03:06:28;;;;;;;;;;;;;;;;;;5124975;28;19924;-66
2022/06/17 03:08:54;;;;;;;;;;;;;;;;;;5127007;28;19923;-66
2022/06/17 03:11:20;;;;;;;;;;;;;;;;;;5127338;28;19923;-65
2022/06/17 03:13:47;;;;;;;;;;;;;;;;;;5128950;28;19946;-65
2022/06/17 03:16:13;;;;;;;;;;;;;;;;;;5128267;28;19923;-66
2022/06/17 03:18:39;;;;;;;;;;;;;;;;;;5129443;27;20507;-65
2022/06/17 03:21:06;;;;;;;;;;;;;;;;;;5133294;27;19944;-65
2022/06/17 03:23:32;;;;;;;;;;;;;;;;;;5128911;28;19934;-66
2022/06/17 03:25:58;;;;;;;;;;;;;;;;;;5128644;28;19967;-66
2022/06/17 03:28:24;;;;;;;;;;;;;;;;;;5128694;28;19967;-66
2022/06/17 03:30:50;;;;;;;;;;;;;;;;;;5131299;27;19923;-65
2022/06/17 03:33:16;;;;;;;;;;;;;;;;;;5125315;27;19954;-66
2022/06/17 03:35:42;;;;;;;;;;;;;;;;;;5117399;28;19924;-65
2022/06/17 03:38:08;;;;;;;;;;;;;;;;;;5126983;28;19930;-65
2022/06/17 03:40:34;;;;;;;;;;;;;;;;;;5128251;28;20364;-66
2022/06/17 03:43:00;;;;;;;;;;;;;;;;;;5128394;28;19967;-65
2022/06/17 03:45:26;;;;;;;;;;;;;;;;;;5126135;28;19995;-65
2022/06/17 03:47:52;;;;;;;;;;;;;;;;;;5127026;28;19924;-66
2022/06/17 03:50:18;;;;;;;;;;;;;;;;;;5138500;27;20000;-66
2022/06/17 03:52:44;;;;;;;;;;;;;;;;;;5137694;27;20116;-65
2022/06/17 03:55:09;;;;;;;;;;;;;;;;;;5126915;28;19955;-65
2022/06/17 03:57:35;;;;;;;;;;;;;;;;;;5126159;28;19924;-65
2022/06/17 04:00:02;;;;;;;;;;;;;;;;;;5128002;28;19928;-65
2022/06/17 04:02:29;;;;;;;;;;;;;;;;;;5126244;28;19928;-65
2022/06/17 04:04:55;;;;;;;;;;;;;;;;;;5126648;28;19923;-65
2022/06/17 04:07:21;;;;;;;;;;;;;;;;;;5126689;28;19945;-65
2022/06/17 04:09:47;;;;;;;;;;;;;;;;;;5127816;28;19934;-65
2022/06/17 04:12:13;;;;;;;;;;;;;;;;;;5127790;28;20294;-65
2022/06/17 04:14:39;;;;;;;;;;;;;;;;;;5127703;28;19958;-65
2022/06/17 04:17:05;;;;;;;;;;;;;;;;;;5124586;28;19931;-66
2022/06/17 04:19:31;;;;;;;;;;;;;;;;;;5127013;28;19928;-65
2022/06/17 04:21:57;;;;;;;;;;;;;;;;;;5130892;27;19979;-65
2022/06/17 04:24:23;;;;;;;;;;;;;;;;;;5130072;27;20295;-65
2022/06/17 04:26:49;;;;;;;;;;;;;;;;;;5127649;28;19924;-66
2022/06/17 04:29:17;;;;;;;;;;;;;;;;;;5126025;28;19938;-66
2022/06/17 04:31:43;;;;;;;;;;;;;;;;;;5125314;28;19983;-65
2022/06/17 04:34:09;;;;;;;;;;;;;;;;;;5127107;28;19978;-65
2022/06/17 04:36:35;;;;;;;;;;;;;;;;;;5127287;28;19931;-65
2022/06/17 04:39:01;;;;;;;;;;;;;;;;;;5127209;28;20011;-65
2022/06/17 04:41:27;;;;;;;;;;;;;;;;;;5125815;28;19939;-65
2022/06/17 04:43:53;;;;;;;;;;;;;;;;;;5127177;28;19975;-65
2022/06/17 04:46:19;;;;;;;;;;;;;;;;;;5127348;28;19962;-66
2022/06/17 04:48:45;;;;;;;;;;;;;;;;;;5128119;27;19973;-66
2022/06/17 04:51:11;;;;;;;;;;;;;;;;;;5127136;28;19959;-66
2022/06/17 04:53:38;;;;;;;;;;;;;;;;;;5124065;28;19982;-66
2022/06/17 04:56:04;;;;;;;;;;;;;;;;;;5125650;28;19978;-66
2022/06/17 04:58:30;;;;;;;;;;;;;;;;;;5126148;28;19924;-67
2022/06/17 05:00:56;;;;;;;;;;;;;;;;;;5126825;28;20348;-66
2022/06/17 05:03:22;;;;;;;;;;;;;;;;;;5123604;28;19924;-66
2022/06/17 05:05:48;;;;;;;;;;;;;;;;;;5126647;28;19949;-66
2022/06/17 05:08:14;;;;;;;;;;;;;;;;;;5126732;28;19931;-66
2022/06/17 05:10:40;;;;;;;;;;;;;;;;;;5126545;28;19919;-66
2022/06/17 05:13:06;;;;;;;;;;;;;;;;;;5125824;28;20418;-66
2022/06/17 05:15:32;;;;;;;;;;;;;;;;;;5126604;28;19955;-65
2022/06/17 05:17:58;;;;;;;;;;;;;;;;;;5126114;28;19966;-66
2022/06/17 05:20:24;;;;;;;;;;;;;;;;;;5125169;28;19973;-66
2022/06/17 05:22:50;;;;;;;;;;;;;;;;;;5126180;28;19923;-66
2022/06/17 05:25:16;;;;;;;;;;;;;;;;;;5125239;28;19972;-66
2022/06/17 05:27:42;;;;;;;;;;;;;;;;;;5126230;28;20030;-66
2022/06/17 05:30:08;;;;;;;;;;;;;;;;;;5126028;28;19962;-65
2022/06/17 05:32:34;;;;;;;;;;;;;;;;;;5133393;27;19958;-66
2022/06/17 05:35:00;;;;;;;;;;;;;;;;;;5128654;27;19975;-66
2022/06/17 05:37:26;;;;;;;;;;;;;;;;;;5124157;28;19979;-65
2022/06/17 05:39:54;;;;;;;;;;;;;;;;;;5124416;28;19983;-65
2022/06/17 05:42:20;;;;;;;;;;;;;;;;;;5126027;28;19924;-65
2022/06/17 05:44:46;;;;;;;;;;;;;;;;;;5126088;28;19931;-66
2022/06/17 05:47:12;;;;;;;;;;;;;;;;;;5123187;28;19923;-65
2022/06/17 05:49:39;;;;;;;;;;;;;;;;;;5125793;28;20405;-65
2022/06/17 05:52:05;;;;;;;;;;;;;;;;;;5124168;28;19935;-65
2022/06/17 05:54:31;;;;;;;;;;;;;;;;;;5124391;28;19923;-65
2022/06/17 05:56:57;;;;;;;;;;;;;;;;;;5123809;28;20279;-66
2022/06/17 05:59:23;;;;;;;;;;;;;;;;;;5116779;28;20000;-66
2022/06/17 06:01:49;;;;;;;;;;;;;;;;;;5128691;27;19986;-65
2022/06/17 06:04:15;;;;;;;;;;;;;;;;;;5125713;28;19924;-66
2022/06/17 06:06:41;;;;;;;;;;;;;;;;;;5125976;28;19931;-66
2022/06/17 06:09:08;;;;;;;;;;;;;;;;;;5125720;28;19923;-66
2022/06/17 06:11:34;;;;;;;;;;;;;;;;;;5158210;27;19924;-66
2022/06/17 06:14:00;;;;;;;;;;;;;;;;;;5123825;28;21030;-65
2022/06/17 06:16:26;;;;;;;;;;;;;;;;;;5124073;28;19927;-65
2022/06/17 06:18:52;;;;;;;;;;;;;;;;;;5129977;28;19924;-66
2022/06/17 06:21:19;;;;;;;;;;;;;;;;;;5129055;28;20005;-65
2022/06/17 06:23:45;;;;;;;;;;;;;;;;;;5125472;28;19963;-65
2022/06/17 06:26:11;;;;;;;;;;;;;;;;;;5125566;27;19993;-65
2022/06/17 06:28:37;;;;;;;;;;;;;;;;;;5123846;28;20438;-66
2022/06/17 06:31:03;;;;;;;;;;;;;;;;;;5123706;28;19930;-65
2022/06/17 06:33:29;;;;;;;;;;;;;;;;;;5125574;28;19931;-65
2022/06/17 06:35:55;;;;;;;;;;;;;;;;;;5124977;28;19923;-65
2022/06/17 06:38:21;;;;;;;;;;;;;;;;;;5123032;27;19932;-67
2022/06/17 06:40:47;;;;;;;;;;;;;;;;;;5125405;28;20447;-66
2022/06/17 06:43:13;;;;;;;;;;;;;;;;;;5132629;27;19923;-66
2022/06/17 06:45:39;;;;;;;;;;;;;;;;;;5129392;28;19924;-66
2022/06/17 06:48:05;;;;;;;;;;;;;;;;;;5158954;27;19924;-67
2022/06/17 06:50:31;;;;;;;;;;;;;;;;;;5127739;28;19928;-66
2022/06/17 06:52:57;;;;;;;;;;;;;;;;;;5129097;28;19936;-66
2022/06/17 06:55:23;;;;;;;;;;;;;;;;;;5129030;28;20294;-67
2022/06/17 06:57:49;;;;;;;;;;;;;;;;;;5115234;28;19932;-66
2022/06/17 07:00:16;;;;;;;;;;;;;;;;;;5128370;28;19978;-67
2022/06/17 07:02:42;;;;;;;;;;;;;;;;;;5133455;27;19947;-66
2022/06/17 07:05:08;;;;;;;;;;;;;;;;;;5128784;28;19924;-66
2022/06/17 07:07:34;;;;;;;;;;;;;;;;;;5128887;28;19930;-66
2022/06/17 07:10:00;;;;;;;;;;;;;;;;;;5150227;27;20303;-66
2022/06/17 07:12:26;;;;;;;;;;;;;;;;;;5122170;28;19923;-66
2022/06/17 07:14:52;;;;;;;;;;;;;;;;;;5123362;27;19941;-66
2022/06/17 07:17:18;;;;;;;;;;;;;;;;;;5128351;27;19987;-66
2022/06/17 07:19:44;;;;;;;;;;;;;;;;;;5119665;27;19924;-66
2022/06/17 07:22:10;;;;;;;;;;;;;;;;;;5125256;28;19938;-66
2022/06/17 07:24:36;;;;;;;;;;;;;;;;;;5119986;28;19924;-66
2022/06/17 07:27:02;;;;;;;;;;;;;;;;;;5128436;28;19933;-66
2022/06/17 07:29:28;;;;;;;;;;;;;;;;;;5128565;28;19970;-66
2022/06/17 07:31:54;;;;;;;;;;;;;;;;;;5127182;27;19962;-66
2022/06/17 07:34:20;;;;;;;;;;;;;;;;;;5128215;28;19935;-66
2022/06/17 07:42:16;;;;;;;;;;;;;;;;;;5115121;28;19945;-67
2022/06/17 07:44:42;;;;;;;;;;;;;;;;;;5129976;27;19971;-66
2022/06/17 07:47:08;;;;;;;;;;;;;;;;;;5128003;28;20018;-66
2022/06/17 07:49:34;;;;;;;;;;;;;;;;;;5123457;28;19927;-66
2022/06/17 07:52:00;;;;;;;;;;;;;;;;;;5121124;28;19927;-66
2022/06/17 07:54:26;;;;;;;;;;;;;;;;;;5113087;28;19924;-66
2022/06/17 07:56:52;;;;;;;;;;;;;;;;;;5123693;27;19924;-66
2022/06/17 07:59:18;;;;;;;;;;;;;;;;;;5127748;28;19974;-66
2022/06/17 08:01:44;;;;;;;;;;;;;;;;;;5127406;27;19938;-66
2022/06/17 08:04:10;;;;;;;;;;;;;;;;;;5125945;27;19931;-66
2022/06/17 08:06:36;;;;;;;;;;;;;;;;;;5123530;27;19970;-66
2022/06/17 08:09:03;;;;;;;;;;;;;;;;;;5129489;27;19927;-66
2022/06/17 08:11:29;;;;;;;;;;;;;;;;;;5136154;27;19924;-66
2022/06/17 08:13:55;;;;;;;;;;;;;;;;;;5136046;27;19924;-66
2022/06/17 08:16:21;;;;;;;;;;;;;;;;;;5134939;27;19924;-66
2022/06/17 08:18:47;;;;;;;;;;;;;;;;;;5136782;27;19931;-66
2022/06/17 08:21:13;;;;;;;;;;;;;;;;;;5122066;27;20338;-66
2022/06/17 08:23:39;;;;;;;;;;;;;;;;;;5128009;27;19934;-66
2022/06/17 08:26:05;;;;;;;;;;;;;;;;;;5130608;27;19931;-66
2022/06/17 08:28:31;;;;;;;;;;;;;;;;;;5126920;27;19930;-66
2022/06/17 08:30:57;;;;;;;;;;;;;;;;;;5131297;27;19931;-66
2022/06/17 08:33:29;;;;;;;;;;;;;;;;;;5129526;27;19934;-66
2022/06/17 08:35:55;;;;;;;;;;;;;;;;;;5128169;27;19970;-66
2022/06/17 08:38:21;;;;;;;;;;;;;;;;;;5131206;27;19923;-67
2022/06/17 08:40:48;;;;;;;;;;;;;;;;;;5126614;27;19966;-67
2022/06/17 08:43:14;;;;;;;;;;;;;;;;;;5130199;27;19931;-66
2022/06/17 08:45:40;;;;;;;;;;;;;;;;;;5133306;27;19924;-66
2022/06/17 08:48:06;;;;;;;;;;;;;;;;;;5128672;27;20004;-66
2022/06/17 08:50:32;;;;;;;;;;;;;;;;;;5128209;27;19984;-66
2022/06/17 08:52:58;;;;;;;;;;;;;;;;;;5132935;27;19928;-66
2022/06/17 08:55:24;;;;;;;;;;;;;;;;;;5156384;27;19965;-66
2022/06/17 08:57:50;;;;;;;;;;;;;;;;;;5126636;28;19973;-66
2022/06/17 09:00:16;;;;;;;;;;;;;;;;;;5124071;28;19924;-67
2022/06/17 09:02:42;;;;;;;;;;;;;;;;;;5129226;27;19927;-68
2022/06/17 09:05:08;;;;;;;;;;;;;;;;;;5130955;27;19931;-68
2022/06/17 09:07:34;;;;;;;;;;;;;;;;;;5126461;27;19984;-67
2022/06/17 09:10:00;;;;;;;;;;;;;;;;;;5128259;27;19974;-66
2022/06/17 09:12:26;;;;;;;;;;;;;;;;;;5129926;27;20151;-68
2022/06/17 09:14:52;;;;;;;;;;;;;;;;;;5131971;27;19983;-67
2022/06/17 09:17:18;;;;;;;;;;;;;;;;;;5132229;27;19924;-66
2022/06/17 09:19:45;;;;;;;;;;;;;;;;;;5124723;28;19923;-68
2022/06/17 09:22:11;;;;;;;;;;;;;;;;;;5129550;27;19939;-66
2022/06/17 09:24:37;;;;;;;;;;;;;;;;;;5126711;27;19935;-68
2022/06/17 09:27:04;;;;;;;;;;;;;;;;;;5135457;27;19924;-68
2022/06/17 09:29:30;;;;;;;;;;;;;;;;;;5134407;27;19924;-68
2022/06/17 09:31:56;;;;;;;;;;;;;;;;;;5123061;27;19924;-68
2022/06/17 09:34:22;;;;;;;;;;;;;;;;;;5126067;28;19923;-69
2022/06/17 09:36:48;;;;;;;;;;;;;;;;;;5129403;27;19943;-68
2022/06/17 09:39:14;;;;;;;;;;;;;;;;;;5132186;27;19987;-68
2022/06/17 09:41:40;;;;;;;;;;;;;;;;;;5152517;27;19934;-68
2022/06/17 09:44:06;;;;;;;;;;;;;;;;;;5127294;27;19931;-68
2022/06/17 09:46:32;;;;;;;;;;;;;;;;;;5129569;27;19927;-66
2022/06/17 09:48:58;;;;;;;;;;;;;;;;;;5131089;27;19924;-66
2022/06/17 09:51:24;;;;;;;;;;;;;;;;;;5133381;27;19930;-66
2022/06/17 09:53:50;;;;;;;;;;;;;;;;;;5127699;27;19923;-65
2022/06/17 09:56:16;;;;;;;;;;;;;;;;;;5125448;28;19931;-66
2022/06/17 09:58:42;;;;;;;;;;;;;;;;;;5128744;27;20301;-66
2022/06/17 10:01:08;;;;;;;;;;;;;;;;;;5126370;27;20303;-65
2022/06/17 10:03:34;;;;;;;;;;;;;;;;;;5125565;28;19923;-65
2022/06/17 10:06:00;;;;;;;;;;;;;;;;;;5120596;28;19923;-65
2022/06/17 10:08:26;;;;;;;;;;;;;;;;;;5125620;28;19919;-65
2022/06/17 10:10:52;;;;;;;;;;;;;;;;;;5124658;27;20450;-66
2022/06/17 10:13:18;;;;;;;;;;;;;;;;;;5136848;27;19931;-65
2022/06/17 10:18:31;;;;;;;;;;;;;;;;;;5132871;28;19987;-65
2022/06/17 10:18:33;;;;;;;;;;;;;;;;;;5125141;28;20374;-65
2022/06/17 10:20:59;;;;;;;;;;;;;;;;;;5124371;28;19931;-65
2022/06/17 10:23:25;;;;;;;;;;;;;;;;;;5137992;28;19924;-66
2022/06/17 10:25:51;;;;;;;;;;;;;;;;;;5127104;28;19970;-66
2022/06/17 10:28:17;;;;;;;;;;;;;;;;;;5125398;27;20022;-65
2022/06/17 10:30:43;;;;;;;;;;;;;;;;;;5124238;28;20026;-65
2022/06/17 10:33:10;;;;;;;;;;;;;;;;;;5123631;28;19976;-67
2022/06/17 10:35:36;;;;;;;;;;;;;;;;;;5124392;28;19928;-69
2022/06/17 10:38:02;;;;;;;;;;;;;;;;;;5124397;28;20836;-68
2022/06/17 10:40:28;;;;;;;;;;;;;;;;;;5124776;27;19927;-68
2022/06/17 10:42:54;;;;;;;;;;;;;;;;;;5125676;28;19924;-68
2022/06/17 10:45:20;;;;;;;;;;;;;;;;;;5125193;28;19920;-68
2022/06/17 10:47:46;;;;;;;;;;;;;;;;;;5124400;28;19931;-67
2022/06/17 10:50:12;;;;;;;;;;;;;;;;;;5124822;28;19924;-68
2022/06/17 10:52:38;;;;;;;;;;;;;;;;;;5124975;28;19920;-67
2022/06/17 10:55:04;;;;;;;;;;;;;;;;;;5125178;28;19945;-67
2022/06/17 10:57:30;;;;;;;;;;;;;;;;;;5125704;28;19924;-67
2022/06/17 10:59:56;;;;;;;;;;;;;;;;;;5125088;28;19931;-68
2022/06/17 11:02:23;;;;;;;;;;;;;;;;;;5124517;28;19924;-67
2022/06/17 11:04:50;;;;;;;;;;;;;;;;;;5122094;28;19946;-67
2022/06/17 11:07:15;;;;;;;;;;;;;;;;;;5151981;27;20018;-65
2022/06/17 11:09:41;;;;;;;;;;;;;;;;;;5124677;28;19930;-65
2022/06/17 11:12:08;;;;;;;;;;;;;;;;;;5124819;28;19927;-64
2022/06/17 11:14:34;;;;;;;;;;;;;;;;;;5126598;28;19950;-64
2022/06/17 11:17:00;;;;;;;;;;;;;;;;;;5135244;28;19968;-64
2022/06/17 11:19:26;;;;;;;;;;;;;;;;;;5124528;28;19966;-64
2022/06/17 11:21:52;;;;;;;;;;;;;;;;;;5123916;28;19987;-64
2022/06/17 11:24:18;;;;;;;;;;;;;;;;;;5124800;28;19931;-64
2022/06/17 11:26:44;;;;;;;;;;;;;;;;;;5124832;28;20407;-64
2022/06/17 11:29:10;;;;;;;;;;;;;;;;;;5125858;28;19931;-63
2022/06/17 11:31:38;;;;;;;;;;;;;;;;;;5128580;28;19920;-63
2022/06/17 11:34:04;;;;;;;;;;;;;;;;;;5127373;28;20023;-63
2022/06/17 11:36:30;;;;;;;;;;;;;;;;;;5129937;27;19924;-63
2022/06/17 11:38:57;;;;;;;;;;;;;;;;;;5126589;27;19931;-63
2022/06/17 11:41:23;;;;;;;;;;;;;;;;;;5126692;27;19924;-63
2022/06/17 11:43:49;;;;;;;;;;;;;;;;;;5127603;28;19924;-63
2022/06/17 11:46:18;;;;;;;;;;;;;;;;;;5128143;28;19955;-63
2022/06/17 11:48:44;;;;;;;;;;;;;;;;;;5127419;28;19931;-63
2022/06/17 11:51:14;;;;;;;;;;;;;;;;;;5127162;28;19924;-63
2022/06/17 11:53:40;;;;;;;;;;;;;;;;;;5127436;28;19930;-63
2022/06/17 11:56:06;;;;;;;;;;;;;;;;;;5125758;28;19924;-63
2022/06/17 11:58:33;;;;;;;;;;;;;;;;;;5127539;27;19930;-63
2022/06/17 12:00:59;;;;;;;;;;;;;;;;;;5126045;28;19953;-63
2022/06/17 12:03:25;;;;;;;;;;;;;;;;;;5127331;27;19975;-63
2022/06/17 12:05:51;;;;;;;;;;;;;;;;;;5132771;27;19986;-63
2022/06/17 12:08:17;;;;;;;;;;;;;;;;;;5129300;27;19930;-63
2022/06/17 12:10:46;;;;;;;;;;;;;;;;;;5134587;27;20009;-63
2022/06/17 12:13:13;;;;;;;;;;;;;;;;;;5128882;27;19978;-63
2022/06/17 12:15:39;;;;;;;;;;;;;;;;;;5132187;27;20003;-63
2022/06/17 12:18:05;;;;;;;;;;;;;;;;;;5136526;27;19931;-63
2022/06/17 12:20:31;;;;;;;;;;;;;;;;;;5131852;27;19923;-63
2022/06/17 12:22:57;;;;;;;;;;;;;;;;;;5130407;27;19924;-63
2022/06/17 12:25:23;;;;;;;;;;;;;;;;;;5129485;27;19949;-63
2022/06/17 12:27:49;;;;;;;;;;;;;;;;;;5126570;28;19924;-63
2022/06/17 12:30:15;;;;;;;;;;;;;;;;;;5136149;27;19924;-63
2022/06/17 12:32:41;;;;;;;;;;;;;;;;;;5130617;27;20030;-63
2022/06/17 12:35:07;;;;;;;;;;;;;;;;;;5131245;27;19930;-63
2022/06/17 12:37:33;;;;;;;;;;;;;;;;;;5126358;27;19924;-63
2022/06/17 12:39:59;;;;;;;;;;;;;;;;;;5134076;27;19924;-63
2022/06/17 12:42:25;;;;;;;;;;;;;;;;;;5130156;27;19937;-63
2022/06/17 12:44:51;;;;;;;;;;;;;;;;;;5132690;27;19945;-63
2022/06/17 12:47:17;;;;;;;;;;;;;;;;;;5129846;27;19928;-63
2022/06/17 12:55:12;;;;;;;;;;;;;;;;;;5134323;27;19933;-62
2022/06/17 12:57:38;;;;;;;;;;;;;;;;;;5130043;27;19967;-63
2022/06/17 13:00:04;;;;;;;;;;;;;;;;;;5125956;28;20023;-63
2022/06/17 13:02:30;;;;;;;;;;;;;;;;;;5125491;28;20433;-62
2022/06/17 13:04:56;;;;;;;;;;;;;;;;;;5127414;27;19978;-63
2022/06/17 13:07:22;;;;;;;;;;;;;;;;;;5130062;27;19932;-63
2022/06/17 13:09:48;;;;;;;;;;;;;;;;;;5126436;27;19927;-63
2022/06/17 13:12:14;;;;;;;;;;;;;;;;;;5136510;27;20023;-63
2022/06/17 13:14:40;;;;;;;;;;;;;;;;;;5121894;27;20002;-63
2022/06/17 13:17:07;;;;;;;;;;;;;;;;;;5128702;27;19946;-62
2022/06/17 13:19:33;;;;;;;;;;;;;;;;;;5127507;27;19970;-65
2022/06/17 13:21:59;;;;;;;;;;;;;;;;;;5124143;27;19953;-63
2022/06/17 13:24:26;;;;;;;;;;;;;;;;;;5125980;27;19924;-63
2022/06/17 13:26:52;;;;;;;;;;;;;;;;;;5124539;28;19930;-63
2022/06/17 13:29:18;;;;;;;;;;;;;;;;;;5129287;27;19928;-63
2022/06/17 13:31:45;;;;;;;;;;;;;;;;;;5121801;27;19926;-63
2022/06/17 13:34:11;;;;;;;;;;;;;;;;;;5130148;27;20403;-63
2022/06/17 13:36:37;;;;;;;;;;;;;;;;;;5122155;27;19967;-63
2022/06/17 13:39:04;;;;;;;;;;;;;;;;;;5123975;27;19946;-63
2022/06/17 13:41:30;;;;;;;;;;;;;;;;;;5120430;28;19931;-63
2022/06/17 13:43:56;;;;;;;;;;;;;;;;;;5113619;28;19966;-63
2022/06/17 13:46:22;;;;;;;;;;;;;;;;;;5121351;28;19935;-63
2022/06/17 13:48:48;;;;;;;;;;;;;;;;;;5125485;27;19927;-63
2022/06/17 13:51:14;;;;;;;;;;;;;;;;;;5124725;28;19945;-63
2022/06/17 13:53:40;;;;;;;;;;;;;;;;;;5124837;28;19924;-63
2022/06/17 13:56:06;;;;;;;;;;;;;;;;;;5123456;28;19932;-63
2022/06/17 13:58:33;;;;;;;;;;;;;;;;;;5121369;28;19924;-63
2022/06/17 14:00:59;;;;;;;;;;;;;;;;;;5122234;28;19931;-64
2022/06/17 14:03:25;;;;;;;;;;;;;;;;;;5120701;27;19931;-63
2022/06/17 14:05:51;;;;;;;;;;;;;;;;;;5121532;28;19932;-63
2022/06/17 14:08:17;;;;;;;;;;;;;;;;;;5113351;28;19968;-64
2022/06/17 14:10:46;;;;;;;;;;;;;;;;;;5123858;28;19924;-64
2022/06/17 14:13:12;;;;;;;;;;;;;;;;;;5124900;28;19931;-63
2022/06/17 14:15:38;;;;;;;;;;;;;;;;;;5125914;28;19928;-63
2022/06/17 14:18:04;;;;;;;;;;;;;;;;;;5115486;28;19930;-63
2022/06/17 14:20:30;;;;;;;;;;;;;;;;;;5124974;28;19928;-63
2022/06/17 14:22:56;;;;;;;;;;;;;;;;;;5130767;28;19923;-64
2022/06/17 14:25:22;;;;;;;;;;;;;;;;;;5124757;28;19924;-63
2022/06/17 14:27:48;;;;;;;;;;;;;;;;;;5118539;28;19927;-63
2022/06/17 14:30:15;;;;;;;;;;;;;;;;;;5129462;28;19927;-63
2022/06/17 14:32:41;;;;;;;;;;;;;;;;;;5151757;27;19927;-63
2022/06/17 14:35:07;;;;;;;;;;;;;;;;;;5125132;28;19927;-63
2022/06/17 14:37:36;;;;;;;;;;;;;;;;;;5117230;28;19924;-63
2022/06/17 14:40:02;;;;;;;;;;;;;;;;;;5121992;28;19953;-63
2022/06/17 14:42:28;;;;;;;;;;;;;;;;;;5132558;28;20386;-63
2022/06/17 14:44:54;;;;;;;;;;;;;;;;;;5125444;28;19924;-63
2022/06/17 14:47:31;;;;;;;;;;;;;;;;;;5113287;28;20019;-63
2022/06/17 14:49:58;;;;;;;;;;;;;;;;;;5122512;28;19949;-63
2022/06/17 14:52:24;;;;;;;;;;;;;;;;;;5124147;28;19928;-63
2022/06/17 14:54:50;;;;;;;;;;;;;;;;;;5122987;27;19942;-63
2022/06/17 14:57:16;;;;;;;;;;;;;;;;;;5124183;28;19923;-63
2022/06/17 14:59:42;;;;;;;;;;;;;;;;;;5124322;28;19963;-63
2022/06/17 15:02:08;;;;;;;;;;;;;;;;;;5125507;27;20395;-63
2022/06/17 15:04:34;;;;;;;;;;;;;;;;;;5123403;28;19931;-63
2022/06/17 15:07:00;;;;;;;;;;;;;;;;;;5130404;27;20017;-63
2022/06/17 15:09:26;;;;;;;;;;;;;;;;;;5139802;27;19953;-64
2022/06/17 15:11:55;;;;;;;;;;;;;;;;;;5126615;27;19954;-63
2022/06/17 15:14:21;;;;;;;;;;;;;;;;;;5115128;27;19943;-63
2022/06/17 15:16:47;;;;;;;;;;;;;;;;;;5128196;27;20409;-63
2022/06/17 15:19:14;;;;;;;;;;;;;;;;;;5118318;27;19999;-63
2022/06/17 15:21:40;;;;;;;;;;;;;;;;;;5132824;27;19923;-63
2022/06/17 15:24:06;;;;;;;;;;;;;;;;;;5125779;27;19970;-63
2022/06/17 15:26:32;;;;;;;;;;;;;;;;;;5130556;27;19923;-63
2022/06/17 15:28:58;;;;;;;;;;;;;;;;;;5126110;27;19931;-63
2022/06/17 15:31:24;;;;;;;;;;;;;;;;;;5131367;27;19949;-64
2022/06/17 15:33:50;;;;;;;;;;;;;;;;;;5128415;27;19931;-63
2022/06/17 15:36:16;;;;;;;;;;;;;;;;;;5134519;27;20043;-63
2022/06/17 15:38:43;;;;;;;;;;;;;;;;;;5127407;27;19949;-63
2022/06/17 15:41:09;;;;;;;;;;;;;;;;;;5125817;27;19940;-63
2022/06/17 15:43:35;;;;;;;;;;;;;;;;;;5125791;27;19924;-63
2022/06/17 15:46:01;;;;;;;;;;;;;;;;;;5120807;27;19971;-63
2022/06/17 15:48:27;;;;;;;;;;;;;;;;;;5121198;27;19923;-63
2022/06/17 15:50:53;;;;;;;;;;;;;;;;;;5130378;27;19931;-63
2022/06/17 15:53:19;;;;;;;;;;;;;;;;;;5126702;27;19927;-64
2022/06/17 15:55:45;;;;;;;;;;;;;;;;;;5126206;27;19935;-64
2022/06/17 15:58:11;;;;;;;;;;;;;;;;;;5135712;27;19928;-63
2022/06/17 16:00:37;;;;;;;;;;;;;;;;;;5128892;27;19927;-63
2022/06/17 16:03:03;;;;;;;;;;;;;;;;;;5127702;27;19924;-63
2022/06/17 16:05:30;;;;;;;;;;;;;;;;;;5128013;28;19924;-63
2022/06/17 16:07:56;;;;;;;;;;;;;;;;;;5125829;28;19924;-63
2022/06/17 16:10:22;;;;;;;;;;;;;;;;;;5126412;27;19950;-63
2022/06/17 16:12:50;;;;;;;;;;;;;;;;;;5129000;27;20196;-64
2022/06/17 16:15:16;;;;;;;;;;;;;;;;;;5137273;27;19962;-63
2022/06/17 16:17:42;;;;;;;;;;;;;;;;;;5125889;27;19924;-63
2022/06/17 16:20:08;;;;;;;;;;;;;;;;;;5125460;27;19928;-60
2022/06/17 16:22:34;;;;;;;;;;;;;;;;;;5130853;27;19966;-64
2022/06/17 16:25:00;;;;;;;;;;;;;;;;;;5119344;28;19928;-64
2022/06/17 16:27:26;;;;;;;;;;;;;;;;;;5115819;27;19919;-64
2022/06/17 16:29:54;;;;;;;;;;;;;;;;;;5122849;28;19973;-64
2022/06/17 16:32:20;;;;;;;;;;;;;;;;;;5125304;28;19974;-64
2022/06/17 16:34:46;;;;;;;;;;;;;;;;;;5123413;28;19939;-65
2022/06/17 16:37:12;;;;;;;;;;;;;;;;;;5123569;27;19924;-65
2022/06/17 16:39:38;;;;;;;;;;;;;;;;;;5125618;27;19928;-64
2022/06/17 16:44:49;;;;;;;;;;;;;;;;;;5125900;27;19924;-64
2022/06/17 16:47:15;;;;;;;;;;;;;;;;;;5127145;28;20057;-64
2022/06/17 16:49:41;;;;;;;;;;;;;;;;;;5122805;27;20446;-64
2022/06/17 16:52:07;;;;;;;;;;;;;;;;;;5125354;27;19952;-63
2022/06/17 16:54:33;;;;;;;;;;;;;;;;;;5120425;27;19983;-65